sensor_id;sensor_type;location;lat;lon;timestamp;temperature;humidity
24226;DHT22;51462;51.422;5.514;2023-05-02T00:01:03;14.00;99.90
24226;DHT22;51462;51.422;5.514;2023-05-02T00:03:30;14.10;99.90
24226;DHT22;51462;51.422;5.514;2023-05-02T00:05:57;14.00;99.90
24226;DHT22;51462;51.422;5.514;2023-05-02T00:08:22;13.70;99.90
24226;DHT22;51462;51.422;5.514;2023-05-02T00:10:48;13.80;99.90
24226;DHT22;51462;51.422;5.514;2023-05-02T00:13:13;13.90;99.90
24226;DHT22;51462;51.422;5.514;2023-05-02T00:15:39;14.40;99.90
24226;DHT22;51462;51.422;5.514;2023-05-02T00:18:05;14.00;99.90
24226;DHT22;51462;51.422;5.514;2023-05-02T00:20:30;13.50;99.90
24226;DHT22;51462;51.422;5.514;2023-05-02T00:22:56;13.40;99.90
24226;DHT22;51462;51.422;5.514;2023-05-02T00:25:21;13.50;99.90
24226;DHT22;51462;51.422;5.514;2023-05-02T00:27:47;13.20;99.90
24226;DHT22;51462;51.422;5.514;2023-05-02T00:30:15;13.00;99.90
24226;DHT22;51462;51.422;5.514;2023-05-02T00:32:41;13.00;99.90
24226;DHT22;51462;51.422;5.514;2023-05-02T00:35:07;13.20;99.90
24226;DHT22;51462;51.422;5.514;2023-05-02T00:37:33;13.50;99.90
24226;DHT22;51462;51.422;5.514;2023-05-02T00:39:58;13.80;99.90
24226;DHT22;51462;51.422;5.514;2023-05-02T00:42:24;13.90;99.90
24226;DHT22;51462;51.422;5.514;2023-05-02T00:44:49;13.60;99.90
24226;DHT22;51462;51.422;5.514;2023-05-02T00:47:15;13.40;99.90
24226;DHT22;51462;51.422;5.514;2023-05-02T00:49:41;13.50;99.90
24226;DHT22;51462;51.422;5.514;2023-05-02T00:52:07;13.90;99.90
24226;DHT22;51462;51.422;5.514;2023-05-02T00:54:34;13.40;99.90
24226;DHT22;51462;51.422;5.514;2023-05-02T00:57:00;13.70;99.90
24226;DHT22;51462;51.422;5.514;2023-05-02T00:59:27;14.30;99.90
24226;DHT22;51462;51.422;5.514;2023-05-02T01:05:17;13.10;99.90
24226;DHT22;51462;51.422;5.514;2023-05-02T01:08:49;13.10;99.90
24226;DHT22;51462;51.422;5.514;2023-05-02T01:10:50;13.30;99.90
24226;DHT22;51462;51.422;5.514;2023-05-02T01:13:23;13.20;99.90
24226;DHT22;51462;51.422;5.514;2023-05-02T01:15:52;13.20;99.90
24226;DHT22;51462;51.422;5.514;2023-05-02T01:18:24;13.20;99.90
24226;DHT22;51462;51.422;5.514;2023-05-02T01:20:59;13.00;99.90
24226;DHT22;51462;51.422;5.514;2023-05-02T01:23:59;13.90;99.90
24226;DHT22;51462;51.422;5.514;2023-05-02T01:26:49;13.70;99.90
24226;DHT22;51462;51.422;5.514;2023-05-02T01:29:16;13.10;99.90
24226;DHT22;51462;51.422;5.514;2023-05-02T01:31:44;13.00;99.90
24226;DHT22;51462;51.422;5.514;2023-05-02T01:34:11;13.20;99.90
24226;DHT22;51462;51.422;5.514;2023-05-02T01:36:47;13.50;99.90
24226;DHT22;51462;51.422;5.514;2023-05-02T01:39:20;13.00;99.90
24226;DHT22;51462;51.422;5.514;2023-05-02T01:41:48;12.80;99.90
24226;DHT22;51462;51.422;5.514;2023-05-02T01:44:15;13.20;99.90
24226;DHT22;51462;51.422;5.514;2023-05-02T01:46:42;13.40;99.90
24226;DHT22;51462;51.422;5.514;2023-05-02T01:49:09;13.60;99.90
24226;DHT22;51462;51.422;5.514;2023-05-02T01:51:39;13.30;99.90
24226;DHT22;51462;51.422;5.514;2023-05-02T01:54:09;13.30;99.90
24226;DHT22;51462;51.422;5.514;2023-05-02T01:56:38;13.50;99.90
24226;DHT22;51462;51.422;5.514;2023-05-02T01:59:21;12.60;99.90
24226;DHT22;51462;51.422;5.514;2023-05-02T02:01:49;13.10;99.90
24226;DHT22;51462;51.422;5.514;2023-05-02T02:04:16;12.90;99.90
24226;DHT22;51462;51.422;5.514;2023-05-02T02:06:45;12.80;99.90
24226;DHT22;51462;51.422;5.514;2023-05-02T02:09:12;12.60;99.90
24226;DHT22;51462;51.422;5.514;2023-05-02T02:14:33;12.30;99.90
24226;DHT22;51462;51.422;5.514;2023-05-02T02:17:00;12.20;99.90
24226;DHT22;51462;51.422;5.514;2023-05-02T02:19:29;12.00;99.90
24226;DHT22;51462;51.422;5.514;2023-05-02T02:21:57;12.00;99.90
24226;DHT22;51462;51.422;5.514;2023-05-02T02:24:23;12.80;99.90
24226;DHT22;51462;51.422;5.514;2023-05-02T02:26:50;12.40;99.90
24226;DHT22;51462;51.422;5.514;2023-05-02T02:29:16;12.50;99.90
24226;DHT22;51462;51.422;5.514;2023-05-02T02:31:41;12.50;99.90
24226;DHT22;51462;51.422;5.514;2023-05-02T02:34:07;12.70;99.90
24226;DHT22;51462;51.422;5.514;2023-05-02T02:36:45;12.60;99.90
24226;DHT22;51462;51.422;5.514;2023-05-02T02:39:22;12.60;99.90
24226;DHT22;51462;51.422;5.514;2023-05-02T02:44:51;13.30;99.90
24226;DHT22;51462;51.422;5.514;2023-05-02T02:52:46;12.40;99.90
24226;DHT22;51462;51.422;5.514;2023-05-02T02:55:30;12.20;99.90
24226;DHT22;51462;51.422;5.514;2023-05-02T02:58:19;12.00;99.90
24226;DHT22;51462;51.422;5.514;2023-05-02T03:00:46;12.40;99.90
24226;DHT22;51462;51.422;5.514;2023-05-02T03:03:16;11.90;99.90
24226;DHT22;51462;51.422;5.514;2023-05-02T03:05:43;12.10;99.90
24226;DHT22;51462;51.422;5.514;2023-05-02T03:08:09;12.30;99.90
24226;DHT22;51462;51.422;5.514;2023-05-02T03:10:34;12.60;99.90
24226;DHT22;51462;51.422;5.514;2023-05-02T03:13:00;12.80;99.90
24226;DHT22;51462;51.422;5.514;2023-05-02T03:17:57;12.70;99.90
24226;DHT22;51462;51.422;5.514;2023-05-02T03:20:22;12.40;99.90
24226;DHT22;51462;51.422;5.514;2023-05-02T03:22:48;12.00;99.90
24226;DHT22;51462;51.422;5.514;2023-05-02T03:25:13;12.30;99.90
24226;DHT22;51462;51.422;5.514;2023-05-02T03:27:39;12.50;99.90
24226;DHT22;51462;51.422;5.514;2023-05-02T03:30:05;12.70;99.90
24226;DHT22;51462;51.422;5.514;2023-05-02T03:32:31;12.60;99.90
24226;DHT22;51462;51.422;5.514;2023-05-02T03:34:56;12.90;99.90
24226;DHT22;51462;51.422;5.514;2023-05-02T03:37:23;12.30;99.90
24226;DHT22;51462;51.422;5.514;2023-05-02T03:39:49;12.00;99.90
24226;DHT22;51462;51.422;5.514;2023-05-02T03:42:15;12.60;99.90
24226;DHT22;51462;51.422;5.514;2023-05-02T03:44:40;12.80;99.90
24226;DHT22;51462;51.422;5.514;2023-05-02T03:47:06;12.50;99.90
24226;DHT22;51462;51.422;5.514;2023-05-02T03:49:33;12.60;99.90
24226;DHT22;51462;51.422;5.514;2023-05-02T03:51:59;12.70;99.90
24226;DHT22;51462;51.422;5.514;2023-05-02T03:54:25;12.30;99.90
24226;DHT22;51462;51.422;5.514;2023-05-02T03:56:53;12.50;99.90
24226;DHT22;51462;51.422;5.514;2023-05-02T03:59:18;12.10;99.90
24226;DHT22;51462;51.422;5.514;2023-05-02T04:01:47;12.50;99.90
24226;DHT22;51462;51.422;5.514;2023-05-02T04:04:13;12.50;99.90
24226;DHT22;51462;51.422;5.514;2023-05-02T04:06:39;13.00;99.90
24226;DHT22;51462;51.422;5.514;2023-05-02T04:09:04;13.20;99.90
24226;DHT22;51462;51.422;5.514;2023-05-02T04:11:30;12.50;99.90
24226;DHT22;51462;51.422;5.514;2023-05-02T04:13:56;12.10;99.90
24226;DHT22;51462;51.422;5.514;2023-05-02T04:16:21;12.40;99.90
24226;DHT22;51462;51.422;5.514;2023-05-02T04:18:47;13.00;99.90
24226;DHT22;51462;51.422;5.514;2023-05-02T04:21:12;13.20;99.90
24226;DHT22;51462;51.422;5.514;2023-05-02T04:23:38;12.60;99.90
24226;DHT22;51462;51.422;5.514;2023-05-02T04:26:04;12.30;99.90
24226;DHT22;51462;51.422;5.514;2023-05-02T04:28:30;12.70;99.90
24226;DHT22;51462;51.422;5.514;2023-05-02T04:30:56;12.60;99.90
24226;DHT22;51462;51.422;5.514;2023-05-02T04:33:22;12.40;99.90
24226;DHT22;51462;51.422;5.514;2023-05-02T04:35:48;13.20;99.90
24226;DHT22;51462;51.422;5.514;2023-05-02T04:38:14;13.00;99.90
24226;DHT22;51462;51.422;5.514;2023-05-02T04:40:40;12.80;99.90
24226;DHT22;51462;51.422;5.514;2023-05-02T04:43:06;12.70;99.90
24226;DHT22;51462;51.422;5.514;2023-05-02T04:45:34;12.80;99.90
24226;DHT22;51462;51.422;5.514;2023-05-02T04:48:00;13.00;99.90
24226;DHT22;51462;51.422;5.514;2023-05-02T04:50:26;13.10;99.90
24226;DHT22;51462;51.422;5.514;2023-05-02T04:52:52;13.30;99.90
24226;DHT22;51462;51.422;5.514;2023-05-02T04:55:18;13.00;99.90
24226;DHT22;51462;51.422;5.514;2023-05-02T04:57:44;12.30;99.90
24226;DHT22;51462;51.422;5.514;2023-05-02T05:00:10;12.20;99.90
24226;DHT22;51462;51.422;5.514;2023-05-02T05:02:36;12.20;99.90
24226;DHT22;51462;51.422;5.514;2023-05-02T05:05:02;12.30;99.90
24226;DHT22;51462;51.422;5.514;2023-05-02T05:07:28;12.00;99.90
24226;DHT22;51462;51.422;5.514;2023-05-02T05:09:54;12.40;99.90
24226;DHT22;51462;51.422;5.514;2023-05-02T05:12:19;12.60;99.90
24226;DHT22;51462;51.422;5.514;2023-05-02T05:14:45;12.40;99.90
24226;DHT22;51462;51.422;5.514;2023-05-02T05:17:10;12.00;99.90
24226;DHT22;51462;51.422;5.514;2023-05-02T05:19:36;12.70;99.90
24226;DHT22;51462;51.422;5.514;2023-05-02T05:22:01;12.70;99.90
24226;DHT22;51462;51.422;5.514;2023-05-02T05:24:27;12.00;99.90
24226;DHT22;51462;51.422;5.514;2023-05-02T05:26:52;12.40;99.90
24226;DHT22;51462;51.422;5.514;2023-05-02T05:29:18;12.70;99.90
24226;DHT22;51462;51.422;5.514;2023-05-02T05:31:43;12.50;99.90
24226;DHT22;51462;51.422;5.514;2023-05-02T05:34:09;12.10;99.90
24226;DHT22;51462;51.422;5.514;2023-05-02T05:36:34;11.90;99.90
24226;DHT22;51462;51.422;5.514;2023-05-02T05:39:00;12.20;99.90
24226;DHT22;51462;51.422;5.514;2023-05-02T05:41:26;11.90;99.90
24226;DHT22;51462;51.422;5.514;2023-05-02T05:43:52;12.20;99.90
24226;DHT22;51462;51.422;5.514;2023-05-02T05:46:17;12.20;99.90
24226;DHT22;51462;51.422;5.514;2023-05-02T05:48:43;12.60;99.90
24226;DHT22;51462;51.422;5.514;2023-05-02T05:51:08;12.40;99.90
24226;DHT22;51462;51.422;5.514;2023-05-02T05:53:34;12.90;99.90
24226;DHT22;51462;51.422;5.514;2023-05-02T05:56:10;12.10;99.90
24226;DHT22;51462;51.422;5.514;2023-05-02T05:58:37;11.90;99.90
24226;DHT22;51462;51.422;5.514;2023-05-02T06:01:03;11.80;99.90
24226;DHT22;51462;51.422;5.514;2023-05-02T06:03:28;12.10;99.90
24226;DHT22;51462;51.422;5.514;2023-05-02T06:05:54;12.10;99.90
24226;DHT22;51462;51.422;5.514;2023-05-02T06:08:20;12.00;99.90
24226;DHT22;51462;51.422;5.514;2023-05-02T06:10:46;12.50;99.90
24226;DHT22;51462;51.422;5.514;2023-05-02T06:13:11;12.90;99.90
24226;DHT22;51462;51.422;5.514;2023-05-02T06:15:37;13.60;99.90
24226;DHT22;51462;51.422;5.514;2023-05-02T06:18:03;13.00;99.90
24226;DHT22;51462;51.422;5.514;2023-05-02T06:20:28;12.60;99.90
24226;DHT22;51462;51.422;5.514;2023-05-02T06:22:54;12.50;99.90
24226;DHT22;51462;51.422;5.514;2023-05-02T06:25:20;12.50;99.90
24226;DHT22;51462;51.422;5.514;2023-05-02T06:27:45;12.60;99.90
24226;DHT22;51462;51.422;5.514;2023-05-02T06:30:11;12.90;99.90
24226;DHT22;51462;51.422;5.514;2023-05-02T06:32:37;12.30;99.90
24226;DHT22;51462;51.422;5.514;2023-05-02T06:35:03;12.50;99.90
24226;DHT22;51462;51.422;5.514;2023-05-02T06:37:32;12.60;99.90
24226;DHT22;51462;51.422;5.514;2023-05-02T06:39:58;12.60;99.90
24226;DHT22;51462;51.422;5.514;2023-05-02T06:42:24;12.50;99.90
24226;DHT22;51462;51.422;5.514;2023-05-02T06:44:50;12.70;99.90
24226;DHT22;51462;51.422;5.514;2023-05-02T06:47:15;12.30;99.90
24226;DHT22;51462;51.422;5.514;2023-05-02T06:49:41;12.70;99.90
24226;DHT22;51462;51.422;5.514;2023-05-02T06:52:07;13.00;99.90
24226;DHT22;51462;51.422;5.514;2023-05-02T06:54:32;13.20;99.90
24226;DHT22;51462;51.422;5.514;2023-05-02T06:56:58;12.80;99.90
24226;DHT22;51462;51.422;5.514;2023-05-02T06:59:24;12.80;99.90
24226;DHT22;51462;51.422;5.514;2023-05-02T07:01:49;12.40;99.90
24226;DHT22;51462;51.422;5.514;2023-05-02T07:04:15;12.20;99.90
24226;DHT22;51462;51.422;5.514;2023-05-02T07:06:40;12.40;99.90
24226;DHT22;51462;51.422;5.514;2023-05-02T07:09:06;12.50;99.90
24226;DHT22;51462;51.422;5.514;2023-05-02T07:11:32;12.50;99.90
24226;DHT22;51462;51.422;5.514;2023-05-02T07:13:57;12.90;99.90
24226;DHT22;51462;51.422;5.514;2023-05-02T07:16:23;13.00;99.90
24226;DHT22;51462;51.422;5.514;2023-05-02T07:18:48;13.00;99.90
24226;DHT22;51462;51.422;5.514;2023-05-02T07:21:14;13.10;99.90
24226;DHT22;51462;51.422;5.514;2023-05-02T07:23:40;12.90;99.90
24226;DHT22;51462;51.422;5.514;2023-05-02T07:26:06;12.80;99.90
24226;DHT22;51462;51.422;5.514;2023-05-02T07:28:31;12.90;99.90
24226;DHT22;51462;51.422;5.514;2023-05-02T07:30:57;13.50;99.90
24226;DHT22;51462;51.422;5.514;2023-05-02T07:33:22;12.80;99.90
24226;DHT22;51462;51.422;5.514;2023-05-02T07:35:49;13.10;99.90
24226;DHT22;51462;51.422;5.514;2023-05-02T07:38:16;13.10;99.90
24226;DHT22;51462;51.422;5.514;2023-05-02T07:40:42;13.00;99.90
24226;DHT22;51462;51.422;5.514;2023-05-02T07:43:08;13.20;99.90
24226;DHT22;51462;51.422;5.514;2023-05-02T07:45:33;12.80;99.90
24226;DHT22;51462;51.422;5.514;2023-05-02T07:47:59;13.00;99.90
24226;DHT22;51462;51.422;5.514;2023-05-02T07:50:25;13.00;99.90
24226;DHT22;51462;51.422;5.514;2023-05-02T07:52:51;13.40;99.90
24226;DHT22;51462;51.422;5.514;2023-05-02T07:55:17;13.40;99.90
24226;DHT22;51462;51.422;5.514;2023-05-02T07:57:43;12.80;99.90
24226;DHT22;51462;51.422;5.514;2023-05-02T08:00:09;12.90;99.90
24226;DHT22;51462;51.422;5.514;2023-05-02T08:02:35;13.40;99.90
24226;DHT22;51462;51.422;5.514;2023-05-02T08:05:01;13.40;99.90
24226;DHT22;51462;51.422;5.514;2023-05-02T08:07:27;12.90;99.90
24226;DHT22;51462;51.422;5.514;2023-05-02T08:09:53;12.80;99.90
24226;DHT22;51462;51.422;5.514;2023-05-02T08:12:18;13.40;99.90
24226;DHT22;51462;51.422;5.514;2023-05-02T08:14:44;13.20;99.90
24226;DHT22;51462;51.422;5.514;2023-05-02T08:17:09;13.20;99.90
24226;DHT22;51462;51.422;5.514;2023-05-02T08:19:35;13.40;99.90
24226;DHT22;51462;51.422;5.514;2023-05-02T08:22:00;13.40;99.90
24226;DHT22;51462;51.422;5.514;2023-05-02T08:24:26;12.90;99.90
24226;DHT22;51462;51.422;5.514;2023-05-02T08:26:52;13.40;99.90
24226;DHT22;51462;51.422;5.514;2023-05-02T08:29:17;13.40;99.90
24226;DHT22;51462;51.422;5.514;2023-05-02T08:31:43;13.70;99.90
24226;DHT22;51462;51.422;5.514;2023-05-02T08:34:08;13.70;99.90
24226;DHT22;51462;51.422;5.514;2023-05-02T08:36:34;13.10;99.90
24226;DHT22;51462;51.422;5.514;2023-05-02T08:39:01;13.50;99.90
24226;DHT22;51462;51.422;5.514;2023-05-02T08:41:28;13.50;99.90
24226;DHT22;51462;51.422;5.514;2023-05-02T08:43:55;13.50;99.90
24226;DHT22;51462;51.422;5.514;2023-05-02T08:46:22;13.10;99.90
24226;DHT22;51462;51.422;5.514;2023-05-02T08:48:48;13.20;99.90
24226;DHT22;51462;51.422;5.514;2023-05-02T08:51:15;13.30;99.90
24226;DHT22;51462;51.422;5.514;2023-05-02T08:53:41;13.80;99.90
24226;DHT22;51462;51.422;5.514;2023-05-02T08:56:08;13.60;99.90
24226;DHT22;51462;51.422;5.514;2023-05-02T08:58:35;13.30;99.90
24226;DHT22;51462;51.422;5.514;2023-05-02T09:01:08;13.20;99.90
24226;DHT22;51462;51.422;5.514;2023-05-02T09:03:35;13.40;99.90
24226;DHT22;51462;51.422;5.514;2023-05-02T09:06:18;13.40;99.90
24226;DHT22;51462;51.422;5.514;2023-05-02T09:08:46;13.00;99.90
24226;DHT22;51462;51.422;5.514;2023-05-02T09:11:16;13.40;99.90
24226;DHT22;51462;51.422;5.514;2023-05-02T09:13:46;13.40;99.90
24226;DHT22;51462;51.422;5.514;2023-05-02T09:16:19;13.20;99.90
24226;DHT22;51462;51.422;5.514;2023-05-02T09:18:55;12.80;99.90
24226;DHT22;51462;51.422;5.514;2023-05-02T09:21:23;12.80;99.90
24226;DHT22;51462;51.422;5.514;2023-05-02T09:23:51;13.30;99.90
24226;DHT22;51462;51.422;5.514;2023-05-02T09:26:27;13.50;99.90
24226;DHT22;51462;51.422;5.514;2023-05-02T09:28:56;14.00;99.90
24226;DHT22;51462;51.422;5.514;2023-05-02T09:33:50;13.70;99.90
24226;DHT22;51462;51.422;5.514;2023-05-02T09:36:18;13.70;99.90
24226;DHT22;51462;51.422;5.514;2023-05-02T09:38:48;13.80;99.90
24226;DHT22;51462;51.422;5.514;2023-05-02T09:41:14;13.90;99.90
24226;DHT22;51462;51.422;5.514;2023-05-02T09:43:40;13.70;99.90
24226;DHT22;51462;51.422;5.514;2023-05-02T09:46:10;13.90;99.90
24226;DHT22;51462;51.422;5.514;2023-05-02T09:51:18;13.40;99.90
24226;DHT22;51462;51.422;5.514;2023-05-02T09:53:44;13.60;99.90
24226;DHT22;51462;51.422;5.514;2023-05-02T09:56:10;14.10;99.90
24226;DHT22;51462;51.422;5.514;2023-05-02T09:58:36;13.70;99.90
24226;DHT22;51462;51.422;5.514;2023-05-02T10:01:01;14.10;99.90
24226;DHT22;51462;51.422;5.514;2023-05-02T10:03:28;14.30;99.90
24226;DHT22;51462;51.422;5.514;2023-05-02T10:05:54;14.30;99.90
24226;DHT22;51462;51.422;5.514;2023-05-02T10:08:24;14.20;99.90
24226;DHT22;51462;51.422;5.514;2023-05-02T10:10:58;14.20;99.90
24226;DHT22;51462;51.422;5.514;2023-05-02T10:13:25;14.10;99.90
24226;DHT22;51462;51.422;5.514;2023-05-02T10:16:01;14.00;99.90
24226;DHT22;51462;51.422;5.514;2023-05-02T10:21:24;14.40;99.90
24226;DHT22;51462;51.422;5.514;2023-05-02T10:23:53;14.20;99.90
24226;DHT22;51462;51.422;5.514;2023-05-02T10:26:20;14.20;99.90
24226;DHT22;51462;51.422;5.514;2023-05-02T10:28:46;13.90;99.90
24226;DHT22;51462;51.422;5.514;2023-05-02T10:31:13;14.30;99.90
24226;DHT22;51462;51.422;5.514;2023-05-02T10:33:39;14.70;99.90
24226;DHT22;51462;51.422;5.514;2023-05-02T10:36:07;15.00;99.90
24226;DHT22;51462;51.422;5.514;2023-05-02T10:38:35;15.20;99.90
24226;DHT22;51462;51.422;5.514;2023-05-02T10:41:07;14.80;99.90
24226;DHT22;51462;51.422;5.514;2023-05-02T10:43:35;14.70;99.90
24226;DHT22;51462;51.422;5.514;2023-05-02T10:46:02;14.80;99.90
24226;DHT22;51462;51.422;5.514;2023-05-02T10:48:28;15.00;99.90
24226;DHT22;51462;51.422;5.514;2023-05-02T10:50:58;14.80;99.90
24226;DHT22;51462;51.422;5.514;2023-05-02T10:53:37;14.80;99.90
24226;DHT22;51462;51.422;5.514;2023-05-02T10:56:20;14.90;99.90
24226;DHT22;51462;51.422;5.514;2023-05-02T10:58:47;15.20;99.90
24226;DHT22;51462;51.422;5.514;2023-05-02T11:06:20;15.30;99.90
24226;DHT22;51462;51.422;5.514;2023-05-02T11:08:46;15.10;99.90
24226;DHT22;51462;51.422;5.514;2023-05-02T11:11:37;15.00;99.90
24226;DHT22;51462;51.422;5.514;2023-05-02T11:14:02;15.00;99.90
24226;DHT22;51462;51.422;5.514;2023-05-02T11:19:29;14.90;99.90
24226;DHT22;51462;51.422;5.514;2023-05-02T11:24:48;15.20;99.90
24226;DHT22;51462;51.422;5.514;2023-05-02T11:30:06;15.50;99.90
24226;DHT22;51462;51.422;5.514;2023-05-02T11:35:20;15.50;99.90
24226;DHT22;51462;51.422;5.514;2023-05-02T11:38:02;15.40;99.90
24226;DHT22;51462;51.422;5.514;2023-05-02T11:40:28;15.70;99.90
24226;DHT22;51462;51.422;5.514;2023-05-02T11:42:55;16.10;99.90
24226;DHT22;51462;51.422;5.514;2023-05-02T11:45:21;16.00;99.90
24226;DHT22;51462;51.422;5.514;2023-05-02T11:47:50;15.80;99.90
24226;DHT22;51462;51.422;5.514;2023-05-02T11:50:16;15.80;99.90
24226;DHT22;51462;51.422;5.514;2023-05-02T11:52:44;16.10;99.90
24226;DHT22;51462;51.422;5.514;2023-05-02T11:55:11;16.20;99.90
24226;DHT22;51462;51.422;5.514;2023-05-02T11:57:38;16.30;99.90
24226;DHT22;51462;51.422;5.514;2023-05-02T12:00:05;16.40;99.90
24226;DHT22;51462;51.422;5.514;2023-05-02T12:02:39;16.70;99.90
24226;DHT22;51462;51.422;5.514;2023-05-02T12:05:07;16.70;99.90
24226;DHT22;51462;51.422;5.514;2023-05-02T12:07:37;16.60;99.90
24226;DHT22;51462;51.422;5.514;2023-05-02T12:10:04;16.50;99.90
24226;DHT22;51462;51.422;5.514;2023-05-02T12:12:30;16.60;99.90
24226;DHT22;51462;51.422;5.514;2023-05-02T12:14:56;16.60;99.90
24226;DHT22;51462;51.422;5.514;2023-05-02T12:17:21;17.00;99.90
24226;DHT22;51462;51.422;5.514;2023-05-02T12:19:48;17.10;99.90
24226;DHT22;51462;51.422;5.514;2023-05-02T12:22:14;17.20;99.90
24226;DHT22;51462;51.422;5.514;2023-05-02T12:24:41;17.40;99.90
24226;DHT22;51462;51.422;5.514;2023-05-02T12:27:11;17.40;99.90
24226;DHT22;51462;51.422;5.514;2023-05-02T12:29:41;17.20;99.90
24226;DHT22;51462;51.422;5.514;2023-05-02T12:32:07;17.30;99.90
24226;DHT22;51462;51.422;5.514;2023-05-02T12:34:34;17.40;99.90
24226;DHT22;51462;51.422;5.514;2023-05-02T12:37:01;17.60;99.90
24226;DHT22;51462;51.422;5.514;2023-05-02T12:39:35;17.90;99.90
24226;DHT22;51462;51.422;5.514;2023-05-02T12:42:11;18.20;99.90
24226;DHT22;51462;51.422;5.514;2023-05-02T12:44:38;17.80;99.90
24226;DHT22;51462;51.422;5.514;2023-05-02T12:47:04;18.00;99.90
24226;DHT22;51462;51.422;5.514;2023-05-02T12:49:30;18.20;99.90
24226;DHT22;51462;51.422;5.514;2023-05-02T12:51:56;18.30;99.90
24226;DHT22;51462;51.422;5.514;2023-05-02T12:54:21;18.50;99.90
24226;DHT22;51462;51.422;5.514;2023-05-02T12:56:47;18.10;99.90
24226;DHT22;51462;51.422;5.514;2023-05-02T12:59:29;18.50;99.90
24226;DHT22;51462;51.422;5.514;2023-05-02T13:01:55;18.40;99.90
24226;DHT22;51462;51.422;5.514;2023-05-02T13:04:32;18.10;99.90
24226;DHT22;51462;51.422;5.514;2023-05-02T13:06:57;17.70;99.90
24226;DHT22;51462;51.422;5.514;2023-05-02T13:09:23;18.30;99.90
24226;DHT22;51462;51.422;5.514;2023-05-02T13:11:48;18.50;99.90
24226;DHT22;51462;51.422;5.514;2023-05-02T13:14:14;18.90;99.90
24226;DHT22;51462;51.422;5.514;2023-05-02T13:16:40;18.90;99.90
24226;DHT22;51462;51.422;5.514;2023-05-02T13:19:05;18.90;99.90
24226;DHT22;51462;51.422;5.514;2023-05-02T13:21:31;19.00;99.90
24226;DHT22;51462;51.422;5.514;2023-05-02T13:23:56;19.40;99.90
24226;DHT22;51462;51.422;5.514;2023-05-02T13:26:23;19.80;99.90
24226;DHT22;51462;51.422;5.514;2023-05-02T13:28:48;19.80;99.90
24226;DHT22;51462;51.422;5.514;2023-05-02T13:31:14;19.80;98.40
24226;DHT22;51462;51.422;5.514;2023-05-02T13:33:40;19.70;99.90
24226;DHT22;51462;51.422;5.514;2023-05-02T13:36:05;20.00;98.70
24226;DHT22;51462;51.422;5.514;2023-05-02T13:38:31;20.30;99.90
24226;DHT22;51462;51.422;5.514;2023-05-02T13:40:56;20.50;99.90
24226;DHT22;51462;51.422;5.514;2023-05-02T13:43:22;20.20;94.40
24226;DHT22;51462;51.422;5.514;2023-05-02T13:45:48;21.10;99.60
24226;DHT22;51462;51.422;5.514;2023-05-02T13:48:14;22.00;98.10
24226;DHT22;51462;51.422;5.514;2023-05-02T13:50:42;21.60;99.90
24226;DHT22;51462;51.422;5.514;2023-05-02T13:53:08;22.00;91.70
24226;DHT22;51462;51.422;5.514;2023-05-02T13:55:33;21.60;92.20
24226;DHT22;51462;51.422;5.514;2023-05-02T13:57:59;22.30;94.60
24226;DHT22;51462;51.422;5.514;2023-05-02T14:00:25;22.50;99.00
24226;DHT22;51462;51.422;5.514;2023-05-02T14:02:53;22.80;98.40
24226;DHT22;51462;51.422;5.514;2023-05-02T14:05:18;22.80;99.80
24226;DHT22;51462;51.422;5.514;2023-05-02T14:07:44;22.70;97.20
24226;DHT22;51462;51.422;5.514;2023-05-02T14:10:10;22.30;87.90
24226;DHT22;51462;51.422;5.514;2023-05-02T14:12:35;23.20;92.00
24226;DHT22;51462;51.422;5.514;2023-05-02T14:15:01;23.10;85.80
24226;DHT22;51462;51.422;5.514;2023-05-02T14:17:26;22.50;93.20
24226;DHT22;51462;51.422;5.514;2023-05-02T14:19:52;22.30;95.30
24226;DHT22;51462;51.422;5.514;2023-05-02T14:22:18;22.90;96.20
24226;DHT22;51462;51.422;5.514;2023-05-02T14:24:43;23.40;93.80
24226;DHT22;51462;51.422;5.514;2023-05-02T14:27:09;23.50;91.80
24226;DHT22;51462;51.422;5.514;2023-05-02T14:29:45;23.20;93.20
24226;DHT22;51462;51.422;5.514;2023-05-02T14:32:11;23.40;93.30
24226;DHT22;51462;51.422;5.514;2023-05-02T14:34:37;24.50;84.80
24226;DHT22;51462;51.422;5.514;2023-05-02T14:37:02;23.50;96.20
24226;DHT22;51462;51.422;5.514;2023-05-02T14:39:28;23.00;94.30
24226;DHT22;51462;51.422;5.514;2023-05-02T14:41:53;22.60;98.40
24226;DHT22;51462;51.422;5.514;2023-05-02T14:44:19;22.60;97.20
24226;DHT22;51462;51.422;5.514;2023-05-02T14:46:44;22.90;97.80
24226;DHT22;51462;51.422;5.514;2023-05-02T14:49:10;23.00;98.10
24226;DHT22;51462;51.422;5.514;2023-05-02T14:51:39;22.90;92.40
24226;DHT22;51462;51.422;5.514;2023-05-02T14:54:05;22.80;90.50
24226;DHT22;51462;51.422;5.514;2023-05-02T14:56:31;22.90;94.90
24226;DHT22;51462;51.422;5.514;2023-05-02T14:58:57;23.10;90.90
24226;DHT22;51462;51.422;5.514;2023-05-02T15:01:23;22.60;91.50
24226;DHT22;51462;51.422;5.514;2023-05-02T15:03:49;22.10;95.60
24226;DHT22;51462;51.422;5.514;2023-05-02T15:06:16;22.40;92.40
24226;DHT22;51462;51.422;5.514;2023-05-02T15:08:42;22.70;98.10
24226;DHT22;51462;51.422;5.514;2023-05-02T15:11:09;23.10;96.10
24226;DHT22;51462;51.422;5.514;2023-05-02T15:13:35;23.70;97.30
24226;DHT22;51462;51.422;5.514;2023-05-02T15:16:02;22.80;91.80
24226;DHT22;51462;51.422;5.514;2023-05-02T15:18:27;22.40;96.60
24226;DHT22;51462;51.422;5.514;2023-05-02T15:20:53;22.40;90.40
24226;DHT22;51462;51.422;5.514;2023-05-02T15:23:18;22.60;96.70
24226;DHT22;51462;51.422;5.514;2023-05-02T15:25:44;22.20;90.60
24226;DHT22;51462;51.422;5.514;2023-05-02T15:28:09;22.30;99.90
24226;DHT22;51462;51.422;5.514;2023-05-02T15:30:35;22.70;99.90
24226;DHT22;51462;51.422;5.514;2023-05-02T15:33:01;23.00;91.80
24226;DHT22;51462;51.422;5.514;2023-05-02T15:35:27;23.00;96.80
24226;DHT22;51462;51.422;5.514;2023-05-02T15:37:53;23.40;95.60
24226;DHT22;51462;51.422;5.514;2023-05-02T15:40:19;23.40;99.40
24226;DHT22;51462;51.422;5.514;2023-05-02T15:42:45;23.40;94.90
24226;DHT22;51462;51.422;5.514;2023-05-02T15:45:11;23.50;95.80
24226;DHT22;51462;51.422;5.514;2023-05-02T15:47:39;24.00;94.20
24226;DHT22;51462;51.422;5.514;2023-05-02T15:50:08;23.10;99.10
24226;DHT22;51462;51.422;5.514;2023-05-02T15:52:35;22.90;97.50
24226;DHT22;51462;51.422;5.514;2023-05-02T15:55:00;23.50;96.10
24226;DHT22;51462;51.422;5.514;2023-05-02T15:57:26;23.10;99.60
24226;DHT22;51462;51.422;5.514;2023-05-02T15:59:52;22.80;91.40
24226;DHT22;51462;51.422;5.514;2023-05-02T16:02:17;22.70;87.20
24226;DHT22;51462;51.422;5.514;2023-05-02T16:04:43;22.80;88.70
24226;DHT22;51462;51.422;5.514;2023-05-02T16:07:09;22.90;98.30
24226;DHT22;51462;51.422;5.514;2023-05-02T16:09:35;23.10;95.30
24226;DHT22;51462;51.422;5.514;2023-05-02T16:12:01;23.10;95.20